createdAt,value
2018-12-22T00:00:15.144Z,9.59
2018-12-22T00:02:43.812Z,9.44
2018-12-22T00:05:12.378Z,9.35
2018-12-22T00:07:40.875Z,9.50
2018-12-22T00:10:09.422Z,9.41
2018-12-22T00:12:37.735Z,9.44
2018-12-22T00:15:06.351Z,9.66
2018-12-22T00:17:34.819Z,9.53
2018-12-22T00:20:03.708Z,9.29
2018-12-22T00:22:32.176Z,9.37
2018-12-22T00:25:00.479Z,9.55
2018-12-22T00:27:29.143Z,9.51
2018-12-22T00:29:57.470Z,9.57
2018-12-22T00:32:25.910Z,9.50
2018-12-22T00:34:54.345Z,9.32
2018-12-22T00:37:22.640Z,9.45
2018-12-22T00:39:51.082Z,9.48
2018-12-22T00:42:19.757Z,9.52
2018-12-22T00:44:48.199Z,9.54
2018-12-22T00:47:16.510Z,9.37
2018-12-22T00:49:44.796Z,9.32
2018-12-22T00:52:13.963Z,9.55
2018-12-22T00:54:42.433Z,9.61
2018-12-22T00:57:10.866Z,9.25
2018-12-22T00:59:39.173Z,9.41
2018-12-22T01:02:07.544Z,9.31
2018-12-22T01:04:36.126Z,9.27
2018-12-22T01:07:04.590Z,9.26
2018-12-22T01:09:33.023Z,9.19
2018-12-22T01:12:01.410Z,9.33
2018-12-22T01:14:29.979Z,9.19
2018-12-22T01:16:58.498Z,9.20
2018-12-22T01:19:26.809Z,9.19
2018-12-22T01:21:55.114Z,9.13
2018-12-22T01:24:23.603Z,9.00
2018-12-22T01:26:51.900Z,9.17
2018-12-22T01:29:20.530Z,9.24
2018-12-22T01:31:49.563Z,9.07
2018-12-22T01:34:18.025Z,9.17
2018-12-22T01:36:46.375Z,9.05
2018-12-22T01:39:15.013Z,9.04
2018-12-22T01:41:43.391Z,8.95
2018-12-22T01:44:11.870Z,9.04
2018-12-22T01:46:40.185Z,8.90
2018-12-22T01:49:08.670Z,9.04
2018-12-22T01:51:36.993Z,9.03
2018-12-22T01:54:05.493Z,8.82
2018-12-22T01:56:34.099Z,8.87
2018-12-22T01:59:02.540Z,8.91
2018-12-22T02:01:30.848Z,8.72
2018-12-22T02:03:59.127Z,8.85
2018-12-22T02:06:27.989Z,8.83
2018-12-22T02:08:56.385Z,8.97
2018-12-22T02:11:24.769Z,8.87
2018-12-22T02:13:53.453Z,8.91
2018-12-22T02:16:21.799Z,8.88
2018-12-22T02:18:50.118Z,8.92
2018-12-22T02:21:18.518Z,8.72
2018-12-22T02:23:46.885Z,8.82
2018-12-22T02:26:15.184Z,8.91
2018-12-22T02:28:43.461Z,8.73
2018-12-22T02:31:11.821Z,8.78
2018-12-22T02:33:40.139Z,8.73
2018-12-22T02:36:08.865Z,8.87
2018-12-22T02:38:37.268Z,8.81
2018-12-22T02:41:05.702Z,8.90
2018-12-22T02:43:33.976Z,8.67
2018-12-22T02:46:02.684Z,8.50
2018-12-22T02:48:31.274Z,8.67
2018-12-22T02:50:59.535Z,8.70
2018-12-22T02:53:27.882Z,8.77
2018-12-22T02:55:56.276Z,8.54
2018-12-22T02:58:24.808Z,8.82
2018-12-22T03:00:53.347Z,8.84
2018-12-22T03:03:21.788Z,8.79
2018-12-22T03:05:50.065Z,8.84
2018-12-22T03:08:18.393Z,8.80
2018-12-22T03:10:46.668Z,8.69
2018-12-22T03:13:14.975Z,8.73
2018-12-22T03:15:43.773Z,8.71
2018-12-22T03:18:12.343Z,8.70
2018-12-22T03:20:41.129Z,8.58
2018-12-22T03:23:09.536Z,8.62
2018-12-22T03:25:37.864Z,8.67
2018-12-22T03:28:06.254Z,8.56
2018-12-22T03:30:34.592Z,8.57
2018-12-22T03:33:02.899Z,8.54
2018-12-22T03:35:31.693Z,8.61
2018-12-22T03:38:00.100Z,8.40
2018-12-22T03:40:28.391Z,8.56
2018-12-22T03:42:56.688Z,8.38
2018-12-22T03:45:25.223Z,8.50
2018-12-22T03:47:53.900Z,8.61
2018-12-22T03:50:22.215Z,8.36
2018-12-22T03:52:50.696Z,8.59
2018-12-22T03:55:18.968Z,8.47
2018-12-22T03:57:47.577Z,8.42
2018-12-22T04:00:16.194Z,8.66
2018-12-22T04:02:44.692Z,8.41
2018-12-22T04:05:12.990Z,8.59
2018-12-22T04:07:42.043Z,8.37
2018-12-22T04:10:10.339Z,8.59
2018-12-22T04:12:38.662Z,8.63
2018-12-22T04:15:07.527Z,8.62
2018-12-22T04:17:36.022Z,8.49
2018-12-22T04:20:06.605Z,8.76
2018-12-22T04:22:35.288Z,8.62
2018-12-22T04:25:03.996Z,8.69
2018-12-22T04:27:32.444Z,8.61
2018-12-22T04:30:00.954Z,8.56
2018-12-22T04:32:29.408Z,8.70
2018-12-22T04:34:57.817Z,8.74
2018-12-22T04:37:26.639Z,8.70
2018-12-22T04:39:55.562Z,8.50
2018-12-22T04:42:23.973Z,8.56
2018-12-22T04:44:52.335Z,8.58
2018-12-22T04:47:20.898Z,8.29
2018-12-22T04:49:49.315Z,8.64
2018-12-22T04:52:17.848Z,8.67
2018-12-22T04:54:46.325Z,8.70
2018-12-22T04:57:14.737Z,8.73
2018-12-22T04:59:43.425Z,8.66
2018-12-22T05:02:11.867Z,8.64
2018-12-22T05:04:40.157Z,8.67
2018-12-22T05:07:08.560Z,8.56
2018-12-22T05:09:36.906Z,8.62
2018-12-22T05:12:05.310Z,8.55
2018-12-22T05:14:33.633Z,8.56
2018-12-22T05:17:02.139Z,8.68
2018-12-22T05:19:30.858Z,8.52
2018-12-22T05:21:59.261Z,8.47
2018-12-22T05:24:27.615Z,8.59
2018-12-22T05:26:55.930Z,8.53
2018-12-22T05:29:24.309Z,8.56
2018-12-22T05:31:52.950Z,8.55
2018-12-22T05:34:21.265Z,8.85
2018-12-22T05:36:49.696Z,8.82
2018-12-22T05:39:17.992Z,8.58
2018-12-22T05:41:46.294Z,8.67
2018-12-22T05:44:15.135Z,8.65
2018-12-22T05:46:44.551Z,8.60
2018-12-22T05:49:12.941Z,8.62
2018-12-22T05:51:42.076Z,8.73
2018-12-22T05:54:10.492Z,8.60
2018-12-22T05:56:38.971Z,8.66
2018-12-22T05:59:07.567Z,8.64
2018-12-22T06:01:35.986Z,8.77
2018-12-22T06:04:04.301Z,8.58
2018-12-22T06:06:32.663Z,8.65
2018-12-22T06:09:01.129Z,8.64
2018-12-22T06:11:29.620Z,8.66
2018-12-22T06:13:58.090Z,8.60
2018-12-22T06:16:26.400Z,8.47
2018-12-22T06:18:54.712Z,8.62
2018-12-22T06:21:22.980Z,8.50
2018-12-22T06:23:51.365Z,8.56
2018-12-22T06:26:19.909Z,8.33
2018-12-22T06:28:48.621Z,8.41
2018-12-22T06:31:17.076Z,8.40
2018-12-22T06:33:47.011Z,8.41
2018-12-22T06:36:15.326Z,8.22
2018-12-22T06:38:43.632Z,8.29
2018-12-22T06:41:11.969Z,8.09
2018-12-22T06:43:40.271Z,8.19
2018-12-22T06:46:09.040Z,8.10
2018-12-22T06:48:37.351Z,8.04
2018-12-22T06:51:05.899Z,7.98
2018-12-22T06:53:34.239Z,8.18
2018-12-22T06:56:02.654Z,7.96
2018-12-22T06:58:31.232Z,8.03
2018-12-22T07:00:59.670Z,7.88
2018-12-22T07:03:27.974Z,7.89
2018-12-22T07:05:56.297Z,7.99
2018-12-22T07:08:25.275Z,7.91
2018-12-22T07:10:53.557Z,7.93
2018-12-22T07:13:21.834Z,7.97
2018-12-22T07:15:50.255Z,7.85
2018-12-22T07:18:18.587Z,7.96
2018-12-22T07:20:47.046Z,7.87
2018-12-22T07:23:15.355Z,8.00
2018-12-22T07:25:43.816Z,7.97
2018-12-22T07:28:12.225Z,7.94
2018-12-22T07:30:40.680Z,8.08
2018-12-22T07:33:09.095Z,8.14
2018-12-22T07:35:37.385Z,8.19
2018-12-22T07:38:05.697Z,8.16
2018-12-22T07:40:34.087Z,8.18
2018-12-22T07:43:02.587Z,8.07
2018-12-22T07:45:30.948Z,8.06
2018-12-22T07:47:59.518Z,8.01
2018-12-22T07:50:28.430Z,7.95
2018-12-22T07:52:56.825Z,7.96
2018-12-22T07:55:25.229Z,8.04
2018-12-22T07:57:56.930Z,8.20
2018-12-22T08:00:25.251Z,8.22
2018-12-22T08:02:53.909Z,8.00
2018-12-22T08:05:22.950Z,7.97
2018-12-22T08:07:51.224Z,8.09
2018-12-22T08:10:19.666Z,7.93
2018-12-22T08:12:47.972Z,8.01
2018-12-22T08:15:16.365Z,7.89
2018-12-22T08:17:44.873Z,7.92
2018-12-22T08:20:13.494Z,7.91
2018-12-22T08:22:41.885Z,7.86
2018-12-22T08:25:10.355Z,7.84
2018-12-22T08:27:43.811Z,7.87
2018-12-22T08:30:12.114Z,7.84
2018-12-22T08:32:40.535Z,7.89
2018-12-22T08:35:09.052Z,7.83
2018-12-22T08:37:37.810Z,7.75
2018-12-22T08:40:09.862Z,7.78
2018-12-22T08:42:38.203Z,7.73
2018-12-22T08:45:08.596Z,7.84
2018-12-22T08:47:36.945Z,7.74
2018-12-22T08:50:09.292Z,7.72
2018-12-22T08:52:38.126Z,7.73
2018-12-22T08:55:07.302Z,7.74
2018-12-22T08:57:37.779Z,7.66
2018-12-22T09:00:10.344Z,7.65
2018-12-22T09:02:38.790Z,7.95
2018-12-22T09:05:08.060Z,8.10
2018-12-22T09:07:36.541Z,7.71
2018-12-22T09:10:06.822Z,7.89
2018-12-22T09:12:35.250Z,7.95
2018-12-22T09:15:04.843Z,8.11
2018-12-22T09:17:33.307Z,8.11
2018-12-22T09:20:01.964Z,7.74
2018-12-22T09:22:30.410Z,7.67
2018-12-22T09:24:58.910Z,7.85
2018-12-22T09:27:27.265Z,7.78
2018-12-22T09:29:55.766Z,7.80
2018-12-22T09:32:24.069Z,7.82
2018-12-22T09:34:52.355Z,7.84
2018-12-22T09:37:21.019Z,7.87
2018-12-22T09:39:49.329Z,7.97
2018-12-22T09:42:17.789Z,7.83
2018-12-22T09:44:46.858Z,7.83
2018-12-22T09:47:15.200Z,7.75
2018-12-22T09:49:43.597Z,7.89
2018-12-22T09:52:12.028Z,7.81
2018-12-22T09:54:40.567Z,7.89
2018-12-22T09:57:08.868Z,7.87
2018-12-22T09:59:37.298Z,7.84
2018-12-22T10:02:05.603Z,7.93
2018-12-22T10:04:34.013Z,7.90
2018-12-22T10:07:02.514Z,7.86
2018-12-22T10:09:31.060Z,7.89
2018-12-22T10:11:59.344Z,8.00
2018-12-22T10:14:27.838Z,8.13
2018-12-22T10:16:56.121Z,8.07
2018-12-22T10:19:24.604Z,7.96
2018-12-22T10:21:52.889Z,8.21
2018-12-22T10:24:21.258Z,8.09
2018-12-22T10:26:49.711Z,8.02
2018-12-22T10:29:18.258Z,8.02
2018-12-22T10:31:46.661Z,7.92
2018-12-22T10:34:15.019Z,8.00
2018-12-22T10:36:43.778Z,7.96
2018-12-22T10:39:12.844Z,8.33
2018-12-22T10:41:41.307Z,8.46
2018-12-22T10:44:09.652Z,8.47
2018-12-22T10:46:37.962Z,8.40
2018-12-22T10:49:06.452Z,8.63
2018-12-22T10:51:38.288Z,8.27
2018-12-22T10:54:06.891Z,8.75
2018-12-22T10:56:35.629Z,8.49
2018-12-22T10:59:04.189Z,8.62
2018-12-22T11:01:32.778Z,8.32
2018-12-22T11:04:01.098Z,8.45
2018-12-22T11:06:29.550Z,8.51
2018-12-22T11:08:57.951Z,8.16
2018-12-22T11:11:26.303Z,8.51
2018-12-22T11:13:54.613Z,8.17
2018-12-22T11:16:23.041Z,7.84
2018-12-22T11:18:51.363Z,8.13
2018-12-22T11:21:20.048Z,8.38
2018-12-22T11:23:48.436Z,8.22
2018-12-22T11:26:16.846Z,8.20
2018-12-22T11:28:45.458Z,8.32
2018-12-22T11:31:13.934Z,8.20
2018-12-22T11:33:42.466Z,8.12
2018-12-22T11:36:11.168Z,8.15
2018-12-22T11:38:39.626Z,8.23
2018-12-22T11:41:07.963Z,8.23
2018-12-22T11:43:36.226Z,8.25
2018-12-22T11:46:04.508Z,8.29
2018-12-22T11:48:33.306Z,8.32
2018-12-22T11:51:01.832Z,8.62
2018-12-22T11:53:30.211Z,8.60
2018-12-22T11:55:58.583Z,8.56
2018-12-22T11:58:27.027Z,8.65
2018-12-22T12:00:55.525Z,8.63
2018-12-22T12:03:23.935Z,8.75
2018-12-22T12:05:52.318Z,8.84
2018-12-22T12:08:20.616Z,8.76
2018-12-22T12:10:48.906Z,8.79
2018-12-22T12:13:17.338Z,9.02
2018-12-22T12:15:47.920Z,9.07
2018-12-22T12:18:28.380Z,8.87
2018-12-22T12:20:56.764Z,8.75
2018-12-22T12:23:25.153Z,8.94
2018-12-22T12:25:53.549Z,8.90
2018-12-22T12:28:22.256Z,8.89
2018-12-22T12:30:50.536Z,9.00
2018-12-22T12:33:18.826Z,8.94
2018-12-22T12:35:47.211Z,9.06
2018-12-22T12:38:15.738Z,9.26
2018-12-22T12:40:44.359Z,9.22
2018-12-22T12:43:12.645Z,9.36
2018-12-22T12:45:41.136Z,9.59
2018-12-22T12:48:09.780Z,9.30
2018-12-22T12:50:40.242Z,9.47
2018-12-22T12:53:09.698Z,9.72
2018-12-22T12:55:38.569Z,9.59
2018-12-22T12:58:06.999Z,9.57
2018-12-22T13:00:35.528Z,9.80
2018-12-22T13:03:03.806Z,9.99
2018-12-22T13:05:32.201Z,9.72
2018-12-22T13:08:00.549Z,10.08
2018-12-22T13:10:29.392Z,10.06
2018-12-22T13:16:10.531Z,9.95
2018-12-22T13:18:38.935Z,9.73
2018-12-22T13:21:09.933Z,10.00
2018-12-22T13:23:38.272Z,9.86
2018-12-22T13:26:06.603Z,10.03
2018-12-22T13:28:34.901Z,9.88
2018-12-22T13:31:03.311Z,9.71
2018-12-22T13:33:32.572Z,9.67
2018-12-22T13:36:01.353Z,9.50
2018-12-22T13:38:29.667Z,9.60
2018-12-22T13:40:58.724Z,9.39
2018-12-22T13:43:27.101Z,9.35
2018-12-22T13:45:55.401Z,9.10
2018-12-22T13:48:24.040Z,9.06
2018-12-22T13:50:53.043Z,9.03
2018-12-22T13:53:21.806Z,9.33
2018-12-22T13:55:50.156Z,9.07
2018-12-22T13:58:18.532Z,9.13
2018-12-22T14:00:46.983Z,9.07
2018-12-22T14:03:15.667Z,9.35
2018-12-22T14:05:44.309Z,9.17
2018-12-22T14:08:12.723Z,9.18
2018-12-22T14:10:41.090Z,9.38
2018-12-22T14:13:09.524Z,9.37
2018-12-22T14:15:39.609Z,9.47
2018-12-22T14:18:22.019Z,9.04
2018-12-22T14:20:50.488Z,9.04
2018-12-22T14:23:20.790Z,8.90
2018-12-22T14:25:49.088Z,9.11
2018-12-22T14:28:18.127Z,9.17
2018-12-22T14:30:46.660Z,9.04
2018-12-22T14:33:19.182Z,9.05
2018-12-22T14:35:47.733Z,9.21
2018-12-22T14:38:16.374Z,9.11
2018-12-22T14:40:44.957Z,9.16
2018-12-22T14:43:13.355Z,9.04
2018-12-22T14:45:41.741Z,9.16
2018-12-22T14:48:10.337Z,8.96
2018-12-22T14:50:39.028Z,9.10
2018-12-22T14:53:07.373Z,9.03
2018-12-22T14:55:35.673Z,9.12
2018-12-22T14:58:05.802Z,9.12
2018-12-22T15:00:34.127Z,8.96
2018-12-22T15:03:03.150Z,8.94
2018-12-22T15:05:31.638Z,8.88
2018-12-22T15:08:00.225Z,9.09
2018-12-22T15:10:29.012Z,9.04
2018-12-22T15:12:57.302Z,9.13
2018-12-22T15:15:25.934Z,9.09
2018-12-22T15:17:54.523Z,9.06
2018-12-22T15:20:28.342Z,9.05
2018-12-22T15:22:56.978Z,8.90
2018-12-22T15:25:26.047Z,9.00
2018-12-22T15:27:54.430Z,9.03
2018-12-22T15:30:22.857Z,8.99
2018-12-22T15:32:54.869Z,9.00
2018-12-22T15:35:22.982Z,8.96
2018-12-22T15:37:51.408Z,9.08
2018-12-22T15:40:19.826Z,8.97
2018-12-22T15:42:48.241Z,8.95
2018-12-22T15:45:18.046Z,8.92
2018-12-22T15:47:47.149Z,8.98
2018-12-22T15:50:28.633Z,9.05
2018-12-22T15:52:58.447Z,9.11
2018-12-22T15:55:26.766Z,9.03
2018-12-22T15:57:55.072Z,8.98
2018-12-22T16:00:23.551Z,9.02
2018-12-22T16:02:53.474Z,9.04
2018-12-22T16:05:22.307Z,9.01
2018-12-22T16:07:50.609Z,8.86
2018-12-22T16:10:18.997Z,9.00
2018-12-22T16:12:47.322Z,8.97
2018-12-22T16:15:22.923Z,8.96
2018-12-22T16:17:51.479Z,8.93
2018-12-22T16:20:19.944Z,9.06
2018-12-22T16:22:57.744Z,8.85
2018-12-22T16:25:26.640Z,9.00
2018-12-22T16:28:00.314Z,8.93
2018-12-22T16:30:42.914Z,9.04
2018-12-22T16:33:11.357Z,9.03
2018-12-22T16:35:40.820Z,9.00
2018-12-22T16:38:09.306Z,8.82
2018-12-22T16:40:37.970Z,8.94
2018-12-22T16:43:10.314Z,9.12
2018-12-22T16:45:41.564Z,8.91
2018-12-22T16:48:10.370Z,8.98
2018-12-22T16:50:39.039Z,8.86
2018-12-22T16:53:07.462Z,8.88
2018-12-22T16:55:36.188Z,9.00
2018-12-22T16:58:12.285Z,8.91
2018-12-22T17:03:49.745Z,8.79
2018-12-22T17:06:18.065Z,9.01
2018-12-22T17:08:46.390Z,8.94
2018-12-22T17:11:14.886Z,8.90
2018-12-22T17:13:43.316Z,8.76
2018-12-22T17:16:11.917Z,8.60
2018-12-22T17:18:40.235Z,8.62
2018-12-22T17:21:15.527Z,8.84
2018-12-22T17:23:58.503Z,8.85
2018-12-22T17:26:29.997Z,8.67
2018-12-22T17:28:58.432Z,8.84
2018-12-22T17:31:26.809Z,8.60
2018-12-22T17:33:55.107Z,8.71
2018-12-22T17:36:25.417Z,8.85
2018-12-22T17:38:54.081Z,8.66
2018-12-22T17:41:22.395Z,8.70
2018-12-22T17:43:50.983Z,8.70
2018-12-22T17:46:19.508Z,8.83
2018-12-22T17:48:48.571Z,8.78
2018-12-22T17:51:16.881Z,8.71
2018-12-22T17:53:45.356Z,8.70
2018-12-22T17:56:14.089Z,8.50
2018-12-22T17:58:42.604Z,8.70
2018-12-22T18:01:10.916Z,8.69
2018-12-22T18:03:39.765Z,8.63
2018-12-22T18:06:08.066Z,8.65
2018-12-22T18:08:36.411Z,8.47
2018-12-22T18:11:04.908Z,8.53
2018-12-22T18:13:33.334Z,8.46
2018-12-22T18:16:01.992Z,8.52
2018-12-22T18:18:30.403Z,8.45
2018-12-22T18:20:59.000Z,8.46
2018-12-22T18:23:27.511Z,8.35
2018-12-22T18:25:55.960Z,8.16
2018-12-22T18:28:24.374Z,8.31
2018-12-22T18:30:53.370Z,8.32
2018-12-22T18:33:21.712Z,8.19
2018-12-22T18:35:50.015Z,8.14
2018-12-22T18:38:18.329Z,8.15
2018-12-22T18:40:47.522Z,8.25
2018-12-22T18:43:15.861Z,8.28
2018-12-22T18:45:44.471Z,8.19
2018-12-22T18:48:13.004Z,8.27
2018-12-22T18:50:41.343Z,8.23
2018-12-22T18:53:09.636Z,8.27
2018-12-22T18:55:37.944Z,8.19
2018-12-22T18:58:06.633Z,8.17
2018-12-22T19:00:35.203Z,8.26
2018-12-22T19:03:03.805Z,8.05
2018-12-22T19:05:32.221Z,8.23
2018-12-22T19:08:00.626Z,8.28
2018-12-22T19:10:33.340Z,8.25
2018-12-22T19:13:01.738Z,8.26
2018-12-22T19:15:30.158Z,8.14
2018-12-22T19:17:58.588Z,8.16
2018-12-22T19:20:32.924Z,8.26
2018-12-22T19:23:01.378Z,8.11
2018-12-22T19:25:29.883Z,8.26
2018-12-22T19:27:58.256Z,8.21
2018-12-22T19:30:26.944Z,8.18
2018-12-22T19:32:55.461Z,7.93
2018-12-22T19:35:24.257Z,8.11
2018-12-22T19:37:52.602Z,8.21
2018-12-22T19:40:20.894Z,8.17
2018-12-22T19:42:49.314Z,8.11
2018-12-22T19:45:17.658Z,8.31
2018-12-22T19:47:46.099Z,8.17
2018-12-22T19:50:14.680Z,8.29
2018-12-22T19:52:43.212Z,8.24
2018-12-22T19:55:11.503Z,8.27
2018-12-22T19:57:39.899Z,8.27
2018-12-22T20:00:08.711Z,8.38
2018-12-22T20:02:37.084Z,8.38
2018-12-22T20:05:06.360Z,8.11
2018-12-22T20:07:34.740Z,8.29
2018-12-22T20:10:03.326Z,8.18
2018-12-22T20:12:31.863Z,8.25
2018-12-22T20:15:00.296Z,8.27
2018-12-22T20:17:28.715Z,8.02
2018-12-22T20:19:57.846Z,8.27
2018-12-22T20:22:26.340Z,8.25
2018-12-22T20:24:54.719Z,8.26
2018-12-22T20:27:23.290Z,8.15
2018-12-22T20:29:52.032Z,8.38
2018-12-22T20:32:20.530Z,8.29
2018-12-22T20:34:49.076Z,8.21
2018-12-22T20:37:17.522Z,8.25
2018-12-22T20:39:46.015Z,8.19
2018-12-22T20:42:14.369Z,8.22
2018-12-22T20:44:43.068Z,8.00
2018-12-22T20:47:11.494Z,8.17
2018-12-22T20:49:40.534Z,8.26
2018-12-22T20:52:08.847Z,8.12
2018-12-22T20:54:37.180Z,8.17
2018-12-22T20:57:05.527Z,8.19
2018-12-22T20:59:34.140Z,8.01
2018-12-22T21:02:02.838Z,7.93
2018-12-22T21:04:31.372Z,8.14
2018-12-22T21:07:00.066Z,7.97
2018-12-22T21:09:28.499Z,8.15
2018-12-22T21:11:57.205Z,8.03
2018-12-22T21:14:25.601Z,8.12
2018-12-22T21:16:54.081Z,7.82
2018-12-22T21:19:22.432Z,8.04
2018-12-22T21:21:50.842Z,8.00
2018-12-22T21:24:19.178Z,7.95
2018-12-22T21:26:48.218Z,8.00
2018-12-22T21:29:17.305Z,7.87
2018-12-22T21:31:45.807Z,7.87
2018-12-22T21:34:14.425Z,7.96
2018-12-22T21:36:43.017Z,7.83
2018-12-22T21:39:11.592Z,7.68
2018-12-22T21:41:40.046Z,7.80
2018-12-22T21:44:09.203Z,7.86
2018-12-22T21:46:38.003Z,7.81
2018-12-22T21:49:07.002Z,7.57
2018-12-22T21:51:35.419Z,7.59
2018-12-22T21:54:03.965Z,7.60
2018-12-22T21:56:32.450Z,7.69
2018-12-22T21:59:01.224Z,7.60
2018-12-22T22:01:29.723Z,7.80
2018-12-22T22:03:58.395Z,7.77
2018-12-22T22:06:26.875Z,7.50
2018-12-22T22:08:55.381Z,7.68
2018-12-22T22:11:23.798Z,7.71
2018-12-22T22:13:52.261Z,7.80
2018-12-22T22:16:20.792Z,7.59
2018-12-22T22:18:49.212Z,7.68
2018-12-22T22:21:18.468Z,7.71
2018-12-22T22:23:47.475Z,7.69
2018-12-22T22:26:15.981Z,7.64
2018-12-22T22:28:44.310Z,7.72
2018-12-22T22:31:12.829Z,7.78
2018-12-22T22:33:41.394Z,7.70
2018-12-22T22:36:09.834Z,7.68
2018-12-22T22:38:38.264Z,7.60
2018-12-22T22:41:06.658Z,7.59
2018-12-22T22:43:35.316Z,7.76
2018-12-22T22:46:03.845Z,7.64
2018-12-22T22:48:32.199Z,7.55
2018-12-22T22:51:00.498Z,7.67
2018-12-22T22:53:29.368Z,7.51
2018-12-22T22:55:57.784Z,7.55
2018-12-22T22:58:26.111Z,7.60
2018-12-22T23:00:54.513Z,7.56
2018-12-22T23:03:22.853Z,7.60
2018-12-22T23:05:51.486Z,7.44
2018-12-22T23:08:19.882Z,7.50
2018-12-22T23:10:48.279Z,7.37
2018-12-22T23:13:17.229Z,7.46
2018-12-22T23:15:45.685Z,7.62
2018-12-22T23:18:13.978Z,7.69
2018-12-22T23:20:42.685Z,7.59
2018-12-22T23:23:11.360Z,7.69
2018-12-22T23:25:39.656Z,7.77
2018-12-22T23:28:08.429Z,7.58
2018-12-22T23:30:36.937Z,7.66
2018-12-22T23:33:05.408Z,7.73
2018-12-22T23:35:33.711Z,7.77
2018-12-22T23:38:02.241Z,7.73
2018-12-22T23:40:30.810Z,7.68
2018-12-22T23:42:59.271Z,7.66
2018-12-22T23:45:27.581Z,7.69
2018-12-22T23:47:55.890Z,7.86
2018-12-22T23:50:24.166Z,7.63
2018-12-22T23:52:53.301Z,7.63
2018-12-22T23:55:21.677Z,7.73
2018-12-22T23:57:50.188Z,7.92
